KOLE/OLE METAR and TAF weather

Enter ICAO airport designator
Station Type Date Time Source
KOLE METAR 2019/02/21 11:35 UTC NOAA

KOLE 211135Z AUTO 26009G17KT 210V320 10SM OVC009 00/00 A2987 RMK AO2


Station Type Date Time Source
KOLE Decoded METAR 2019/02/21 11:35 UTC NOAA

Olean Municipal, NY, United States (KOLE) 42-14N 078-22W
Feb 21, 2019 - 06:35 AM EST / 2019.02.21 1135 UTC
Wind: from the W (260 degrees) at 10 MPH (9 KT) gusting to 20 MPH (17 KT) (direction variable):0
Visibility: 10 mile(s):0
Sky conditions: overcast
Temperature: 32 F (0 C)
Windchill: 23 F (-5 C):1
Dew Point: 32 F (0 C)
Relative Humidity: 100%
Pressure (altimeter): 29.87 in. Hg (1011 hPa)
ob: KOLE 211135Z AUTO 26009G17KT 210V320 10SM OVC009 00/00 A2987 RMK AO2
cycle: 11

Station Type Date Time Source
KOLE TAF UTC NOAA

Error!


Example: see airport list